createdAt,value
2022-08-17T00:00:39.733Z,44.90
2022-08-17T00:03:15.029Z,43.93
2022-08-17T00:05:47.852Z,38.87
2022-08-17T00:08:18.640Z,40.20
2022-08-17T00:10:48.180Z,40.83
2022-08-17T00:13:25.229Z,37.77
2022-08-17T00:15:58.627Z,41.77
2022-08-17T00:19:06.324Z,41.87
2022-08-17T00:21:25.356Z,41.10
2022-08-17T00:23:54.857Z,41.03
2022-08-17T00:26:34.665Z,40.13
2022-08-17T00:29:19.740Z,39.40
2022-08-17T00:31:48.985Z,49.30
2022-08-17T00:34:19.064Z,38.60
2022-08-17T00:36:47.605Z,40.70
2022-08-17T00:39:16.120Z,36.53
2022-08-17T00:41:44.635Z,39.50
2022-08-17T00:44:13.108Z,41.97
2022-08-17T00:46:43.586Z,37.20
2022-08-17T00:49:14.348Z,38.97
2022-08-17T00:51:47.555Z,37.23
2022-08-17T00:54:19.809Z,37.40
2022-08-17T00:56:52.768Z,38.97
2022-08-17T00:59:24.156Z,41.10
2022-08-17T01:01:53.740Z,38.70
2022-08-17T01:04:23.865Z,39.97
2022-08-17T01:06:55.951Z,42.27
2022-08-17T01:09:24.481Z,37.57
2022-08-17T01:11:53.139Z,34.00
2022-08-17T01:14:22.673Z,34.50
2022-08-17T01:16:53.879Z,33.00
2022-08-17T01:19:36.899Z,39.20
2022-08-17T01:22:17.737Z,33.13
2022-08-17T01:24:49.328Z,37.33
2022-08-17T01:27:20.691Z,31.43
2022-08-17T01:29:55.924Z,29.97
2022-08-17T01:32:24.377Z,27.63
2022-08-17T01:34:53.152Z,28.47
2022-08-17T01:37:30.256Z,31.07
2022-08-17T01:40:05.658Z,30.33
2022-08-17T01:42:38.803Z,32.47
2022-08-17T01:45:10.552Z,34.37
2022-08-17T01:47:39.255Z,31.53
2022-08-17T01:50:15.696Z,34.17
2022-08-17T01:52:49.253Z,34.80
2022-08-17T01:55:25.882Z,31.33
2022-08-17T01:57:56.184Z,39.90
2022-08-17T02:00:25.458Z,39.00
2022-08-17T02:02:53.888Z,42.93
2022-08-17T02:05:22.351Z,43.63
2022-08-17T02:08:00.225Z,31.70
2022-08-17T02:10:33.826Z,34.90
2022-08-17T02:13:05.115Z,40.17
2022-08-17T02:15:34.665Z,34.57
2022-08-17T02:18:03.368Z,35.80
2022-08-17T02:20:41.790Z,34.43
2022-08-17T02:23:14.408Z,30.70
2022-08-17T02:25:47.656Z,26.73
2022-08-17T02:28:16.859Z,27.07
2022-08-17T02:30:59.803Z,24.33
2022-08-17T02:33:42.659Z,21.97
2022-08-17T02:36:13.313Z,22.97
2022-08-17T02:38:43.379Z,26.50
2022-08-17T02:41:12.608Z,23.93
2022-08-17T02:43:41.143Z,28.57
2022-08-17T02:46:09.946Z,26.10
2022-08-17T02:48:38.383Z,27.37
2022-08-17T02:51:06.937Z,28.63
2022-08-17T02:53:35.848Z,24.80
2022-08-17T02:56:06.315Z,25.43
2022-08-17T02:58:36.198Z,24.40
2022-08-17T03:01:06.061Z,24.17
2022-08-17T03:03:35.340Z,25.70
2022-08-17T03:06:05.785Z,24.27
2022-08-17T03:08:34.574Z,25.77
2022-08-17T03:11:03.698Z,22.93
2022-08-17T03:13:33.436Z,25.03
2022-08-17T03:16:01.879Z,24.10
2022-08-17T03:18:30.290Z,23.90
2022-08-17T03:21:01.638Z,20.30
2022-08-17T03:23:30.483Z,23.43
2022-08-17T03:26:00.283Z,19.37
2022-08-17T03:28:29.305Z,22.30
2022-08-17T03:30:59.158Z,24.83
2022-08-17T03:33:27.633Z,21.93
2022-08-17T03:35:56.087Z,20.90
2022-08-17T03:38:24.781Z,22.60
2022-08-17T03:40:59.377Z,19.33
2022-08-17T03:43:30.041Z,21.43
2022-08-17T03:46:27.673Z,20.63
2022-08-17T03:49:15.312Z,21.57
2022-08-17T03:52:01.333Z,18.23
2022-08-17T03:54:47.266Z,21.03
2022-08-17T03:57:16.261Z,18.13
2022-08-17T03:59:45.098Z,20.87
2022-08-17T04:02:20.556Z,17.80
2022-08-17T04:04:51.296Z,19.03
2022-08-17T04:07:20.778Z,19.07
2022-08-17T04:09:49.332Z,17.87
2022-08-17T04:12:20.011Z,13.03
2022-08-17T04:14:52.659Z,14.50
2022-08-17T04:17:27.952Z,14.17
2022-08-17T04:19:57.305Z,14.47
2022-08-17T04:22:31.204Z,15.10
2022-08-17T04:25:05.269Z,13.60
2022-08-17T04:27:33.779Z,15.60
2022-08-17T04:30:02.533Z,14.83
2022-08-17T04:33:03.813Z,18.47
2022-08-17T04:35:25.095Z,15.03
2022-08-17T04:37:53.727Z,15.73
2022-08-17T04:40:42.348Z,17.27
2022-08-17T04:43:14.215Z,19.07
2022-08-17T04:45:55.192Z,17.30
2022-08-17T04:48:36.705Z,16.03
2022-08-17T04:51:09.675Z,20.13
2022-08-17T04:53:39.330Z,21.93
2022-08-17T04:56:11.724Z,24.07
2022-08-17T04:58:46.525Z,23.47
2022-08-17T05:01:15.147Z,27.90
2022-08-17T05:03:45.045Z,27.63
2022-08-17T05:06:13.467Z,26.57
2022-08-17T05:08:42.344Z,25.57
2022-08-17T05:11:10.803Z,21.07
2022-08-17T05:13:39.284Z,30.37
2022-08-17T05:16:09.062Z,26.37
2022-08-17T05:18:38.842Z,24.27
2022-08-17T05:21:08.891Z,25.53
2022-08-17T05:23:43.037Z,23.73
2022-08-17T05:26:25.652Z,25.30
2022-08-17T05:28:57.185Z,22.80
2022-08-17T05:31:29.709Z,23.87
2022-08-17T05:33:58.431Z,25.03
2022-08-17T05:36:42.266Z,18.60
2022-08-17T05:39:16.215Z,18.40
2022-08-17T05:41:46.848Z,18.27
2022-08-17T05:44:15.861Z,19.47
2022-08-17T05:46:48.877Z,19.60
2022-08-17T05:49:22.893Z,16.40
2022-08-17T05:52:06.854Z,15.27
2022-08-17T05:54:44.525Z,15.73
2022-08-17T05:57:32.719Z,18.47
2022-08-17T06:00:10.752Z,11.57
2022-08-17T06:03:08.884Z,16.13
2022-08-17T06:05:51.351Z,12.83
2022-08-17T06:08:28.412Z,11.17
2022-08-17T06:11:03.688Z,11.10
2022-08-17T06:13:48.599Z,12.07
2022-08-17T06:16:33.739Z,12.93
2022-08-17T06:19:06.417Z,9.57
2022-08-17T06:21:39.089Z,12.47
2022-08-17T06:24:22.662Z,11.97
2022-08-17T06:26:53.299Z,9.63
2022-08-17T06:29:35.396Z,11.67
2022-08-17T06:32:05.274Z,11.73
2022-08-17T06:34:34.865Z,12.80
2022-08-17T06:37:12.357Z,10.83
2022-08-17T06:39:54.829Z,10.13
2022-08-17T06:42:54.861Z,10.67
2022-08-17T06:45:28.755Z,12.20
2022-08-17T06:48:03.650Z,9.47
2022-08-17T06:50:36.753Z,19.27
2022-08-17T06:53:14.692Z,11.57
2022-08-17T06:55:50.997Z,10.90
2022-08-17T06:58:23.547Z,12.97
2022-08-17T07:01:01.095Z,13.33
2022-08-17T07:03:37.625Z,15.60
2022-08-17T07:06:12.081Z,13.77
2022-08-17T07:08:50.377Z,14.03
2022-08-17T07:11:27.175Z,17.47
2022-08-17T07:14:04.206Z,13.97
2022-08-17T07:16:39.385Z,14.33
2022-08-17T07:19:10.897Z,18.70
2022-08-17T07:21:48.766Z,21.53
2022-08-17T07:24:30.916Z,15.13
2022-08-17T07:27:13.365Z,18.60
2022-08-17T07:29:47.945Z,19.63
2022-08-17T07:32:19.894Z,16.63
2022-08-17T07:35:21.102Z,21.43
2022-08-17T07:37:53.137Z,17.80
2022-08-17T07:40:29.273Z,21.97
2022-08-17T07:43:29.551Z,18.47
2022-08-17T07:46:22.950Z,19.67
2022-08-17T07:48:55.998Z,19.27
2022-08-17T07:51:28.041Z,19.43
2022-08-17T07:54:13.552Z,17.67
2022-08-17T07:56:46.844Z,20.57
2022-08-17T07:59:21.844Z,20.93
2022-08-17T08:02:26.454Z,18.77
2022-08-17T08:05:08.587Z,18.60
2022-08-17T08:07:42.404Z,19.60
2022-08-17T08:10:14.390Z,21.13
2022-08-17T08:12:45.969Z,21.43
2022-08-17T08:15:20.360Z,21.40
2022-08-17T08:17:53.302Z,18.23
2022-08-17T08:20:51.236Z,22.23
2022-08-17T08:23:29.486Z,17.57
2022-08-17T08:26:08.140Z,22.57
2022-08-17T08:28:46.570Z,19.93
2022-08-17T08:31:25.331Z,16.53
2022-08-17T08:34:05.768Z,16.80
2022-08-17T08:37:12.771Z,14.53
2022-08-17T08:39:44.744Z,12.17
2022-08-17T08:42:20.839Z,12.73
2022-08-17T08:45:04.172Z,11.93
2022-08-17T08:48:05.922Z,9.10
2022-08-17T08:50:50.276Z,10.63
2022-08-17T08:53:28.577Z,9.00
2022-08-17T08:56:02.541Z,8.97
2022-08-17T08:58:41.655Z,10.73
2022-08-17T09:01:19.366Z,8.40
2022-08-17T09:04:21.356Z,10.53
2022-08-17T09:07:00.372Z,8.17
2022-08-17T09:09:41.823Z,8.50
2022-08-17T09:12:19.131Z,8.50
2022-08-17T09:14:55.557Z,10.20
2022-08-17T09:17:36.526Z,14.30
2022-08-17T09:20:28.298Z,9.83
2022-08-17T09:23:03.911Z,8.77
2022-08-17T09:25:49.688Z,11.13
2022-08-17T09:28:20.656Z,9.60
2022-08-17T09:30:54.151Z,13.20
2022-08-17T09:33:26.879Z,14.97
2022-08-17T09:36:01.026Z,21.40
2022-08-17T09:38:36.143Z,15.87
2022-08-17T09:41:15.222Z,14.43
2022-08-17T09:43:49.937Z,18.37
2022-08-17T09:46:22.889Z,16.80
2022-08-17T09:48:57.362Z,16.80
2022-08-17T09:51:33.112Z,17.90
2022-08-17T09:54:21.371Z,19.60
2022-08-17T09:57:26.196Z,17.10
2022-08-17T10:00:02.690Z,17.60
2022-08-17T10:03:05.485Z,17.83
2022-08-17T10:05:46.225Z,15.97
2022-08-17T10:08:32.027Z,17.17
2022-08-17T10:11:10.902Z,14.13
2022-08-17T10:13:53.146Z,16.10
2022-08-17T10:16:30.410Z,12.93
2022-08-17T10:19:08.105Z,13.23
2022-08-17T10:22:00.779Z,18.80
2022-08-17T10:25:21.598Z,15.67
2022-08-17T10:27:48.614Z,15.00
2022-08-17T10:30:19.692Z,15.20
2022-08-17T10:32:55.004Z,23.73
2022-08-17T10:35:35.411Z,15.03
2022-08-17T10:38:36.436Z,13.00
2022-08-17T10:41:24.037Z,18.70
2022-08-17T10:44:38.282Z,15.17
2022-08-17T10:47:04.261Z,12.53
2022-08-17T10:49:34.889Z,11.57
2022-08-17T10:52:26.064Z,13.27
2022-08-17T10:55:13.815Z,13.97
2022-08-17T10:57:45.821Z,14.50
2022-08-17T11:01:03.937Z,14.03
2022-08-17T11:03:33.137Z,12.50
2022-08-17T11:06:09.500Z,13.67
2022-08-17T11:09:14.956Z,14.53
2022-08-17T11:12:01.146Z,12.77
2022-08-17T11:14:50.296Z,13.33
2022-08-17T11:17:41.727Z,16.77
2022-08-17T11:20:27.465Z,19.50
2022-08-17T11:23:26.308Z,16.00
2022-08-17T11:25:57.449Z,20.00
2022-08-17T11:28:28.143Z,18.43
2022-08-17T11:31:04.115Z,18.07
2022-08-17T11:33:59.203Z,17.30
2022-08-17T11:36:48.392Z,16.23
2022-08-17T11:39:35.341Z,19.67
2022-08-17T11:42:08.934Z,16.53
2022-08-17T11:44:52.320Z,20.00
2022-08-17T11:48:09.010Z,18.17
2022-08-17T11:51:08.686Z,21.00
2022-08-17T11:57:02.435Z,23.80
2022-08-17T11:59:58.630Z,29.03
2022-08-17T12:02:48.075Z,20.77
2022-08-17T12:05:34.021Z,22.20
2022-08-17T12:08:19.633Z,24.03
2022-08-17T12:11:08.358Z,24.10
2022-08-17T12:13:44.601Z,26.33
2022-08-17T12:16:17.313Z,27.90
2022-08-17T12:18:53.336Z,30.47
2022-08-17T12:21:34.363Z,28.57
2022-08-17T12:24:13.444Z,32.63
2022-08-17T12:26:44.048Z,32.97
2022-08-17T12:29:18.123Z,33.87
2022-08-17T12:32:06.780Z,36.83
2022-08-17T12:34:41.765Z,30.40
2022-08-17T12:37:16.458Z,30.83
2022-08-17T12:39:52.691Z,31.83
2022-08-17T12:42:27.353Z,37.93
2022-08-17T12:44:56.029Z,33.70
2022-08-17T12:47:25.252Z,35.93
2022-08-17T12:50:08.208Z,37.77
2022-08-17T12:53:01.294Z,35.17
2022-08-17T12:55:32.556Z,36.63
2022-08-17T12:58:03.375Z,37.07
2022-08-17T13:00:34.090Z,35.77
2022-08-17T13:03:05.921Z,36.47
2022-08-17T13:05:38.564Z,34.43
2022-08-17T13:08:15.461Z,35.87
2022-08-17T13:10:44.866Z,38.63
2022-08-17T13:13:20.860Z,37.87
2022-08-17T13:15:55.026Z,39.30
2022-08-17T13:18:38.939Z,47.27
2022-08-17T13:21:18.703Z,38.47
2022-08-17T13:23:59.676Z,37.83
2022-08-17T13:26:32.513Z,35.17
2022-08-17T13:29:02.176Z,39.80
2022-08-17T13:31:51.800Z,44.87
2022-08-17T13:34:35.781Z,34.80
2022-08-17T13:37:33.882Z,38.37
2022-08-17T13:40:19.960Z,42.77
2022-08-17T13:42:53.519Z,38.00
2022-08-17T13:45:45.870Z,45.00
2022-08-17T13:48:27.321Z,43.40
2022-08-17T13:51:16.172Z,38.47
2022-08-17T13:54:03.669Z,44.00
2022-08-17T13:56:41.555Z,45.30
2022-08-17T13:59:13.677Z,39.27
2022-08-17T14:01:44.802Z,46.37
2022-08-17T14:04:16.797Z,43.30
2022-08-17T14:06:52.761Z,46.27
2022-08-17T14:09:27.215Z,39.87
2022-08-17T14:11:57.843Z,46.90
2022-08-17T14:14:27.042Z,39.47
2022-08-17T14:16:57.497Z,41.70
2022-08-17T14:19:26.984Z,49.00
2022-08-17T14:21:58.737Z,39.70
2022-08-17T14:24:31.802Z,41.03
2022-08-17T14:27:02.093Z,44.37
2022-08-17T14:29:33.194Z,45.67
2022-08-17T14:32:06.401Z,38.50
2022-08-17T14:34:35.112Z,47.63
2022-08-17T14:37:03.610Z,39.17
2022-08-17T14:39:33.683Z,41.13
2022-08-17T14:42:02.639Z,41.83
2022-08-17T14:44:31.208Z,43.00
2022-08-17T14:46:59.642Z,43.17
2022-08-17T14:49:28.167Z,41.87
2022-08-17T14:51:56.619Z,42.50
2022-08-17T14:54:33.652Z,43.57
2022-08-17T14:57:22.642Z,37.20
2022-08-17T14:59:55.366Z,47.07
2022-08-17T15:02:29.711Z,37.27
2022-08-17T15:05:03.905Z,35.20
2022-08-17T15:07:32.443Z,38.47
2022-08-17T15:10:02.069Z,36.63
2022-08-17T15:12:34.264Z,33.33
2022-08-17T15:15:05.398Z,37.93
2022-08-17T15:17:43.928Z,38.30
2022-08-17T15:20:17.336Z,42.20
2022-08-17T15:22:49.513Z,34.87
2022-08-17T15:25:19.326Z,39.93
2022-08-17T15:27:49.691Z,41.07
2022-08-17T15:30:18.641Z,33.07
2022-08-17T15:32:51.241Z,36.73
2022-08-17T15:35:28.182Z,40.50
2022-08-17T15:38:04.573Z,38.93
2022-08-17T15:40:38.047Z,35.60
2022-08-17T15:43:11.247Z,37.37
2022-08-17T15:45:40.615Z,36.67
2022-08-17T15:48:09.572Z,41.77
2022-08-17T15:50:38.470Z,42.37
2022-08-17T15:53:06.931Z,35.77
2022-08-17T15:55:36.603Z,36.43
2022-08-17T15:58:05.343Z,38.03
2022-08-17T16:00:52.109Z,62.33
2022-08-17T16:03:58.071Z,38.77
2022-08-17T16:06:14.808Z,31.63
2022-08-17T16:08:44.749Z,32.57
2022-08-17T16:11:15.382Z,33.97
2022-08-17T16:13:53.081Z,38.03
2022-08-17T16:16:24.786Z,35.50
2022-08-17T16:18:54.592Z,33.03
2022-08-17T16:21:27.478Z,37.23
2022-08-17T16:24:00.706Z,37.43
2022-08-17T16:26:31.129Z,36.50
2022-08-17T16:29:01.108Z,30.27
2022-08-17T16:31:31.165Z,33.80
2022-08-17T16:34:17.970Z,31.83
2022-08-17T16:36:54.640Z,26.53
2022-08-17T16:39:26.472Z,24.37
2022-08-17T16:41:55.830Z,28.37
2022-08-17T16:44:25.554Z,29.93
2022-08-17T16:46:57.347Z,26.23
2022-08-17T16:49:37.199Z,29.93
2022-08-17T16:52:11.063Z,28.40
2022-08-17T16:54:43.596Z,28.10
2022-08-17T16:57:12.661Z,31.23
2022-08-17T16:59:43.937Z,32.43
2022-08-17T17:02:17.149Z,31.13
2022-08-17T17:04:52.231Z,23.37
2022-08-17T17:07:49.815Z,28.73
2022-08-17T17:10:21.793Z,27.43
2022-08-17T17:13:01.245Z,26.83
2022-08-17T17:15:46.199Z,26.93
2022-08-17T17:18:17.551Z,27.67
2022-08-17T17:20:53.444Z,30.17
2022-08-17T17:23:32.784Z,28.27
2022-08-17T17:26:10.199Z,31.53
2022-08-17T17:28:56.633Z,31.37
2022-08-17T17:31:32.225Z,30.73
2022-08-17T17:34:05.401Z,32.03
2022-08-17T17:36:40.494Z,33.93
2022-08-17T17:39:14.202Z,34.60
2022-08-17T17:41:48.182Z,34.43
2022-08-17T17:44:20.838Z,29.03
2022-08-17T17:46:54.006Z,32.90
2022-08-17T17:49:34.027Z,33.17
2022-08-17T17:52:14.237Z,37.10
2022-08-17T17:54:56.198Z,36.23
2022-08-17T17:57:37.369Z,35.23
2022-08-17T18:00:11.039Z,30.93
2022-08-17T18:02:52.623Z,36.47
2022-08-17T18:05:48.345Z,38.40
2022-08-17T18:08:34.317Z,41.20
2022-08-17T18:11:24.513Z,38.70
2022-08-17T18:14:05.994Z,36.93
2022-08-17T18:16:36.061Z,41.77
2022-08-17T18:19:06.805Z,37.80
2022-08-17T18:21:44.390Z,42.30
2022-08-17T18:24:14.260Z,39.83
2022-08-17T18:26:51.133Z,35.63
2022-08-17T18:29:42.193Z,40.00
2022-08-17T18:32:33.663Z,45.73
2022-08-17T18:35:40.340Z,36.73
2022-08-17T18:38:23.255Z,47.57
2022-08-17T18:41:20.645Z,40.87
2022-08-17T18:44:01.636Z,50.03
2022-08-17T18:46:35.076Z,45.43
2022-08-17T18:49:06.780Z,57.03
2022-08-17T18:51:42.252Z,54.27
2022-08-17T18:54:21.941Z,54.97
2022-08-17T18:56:53.074Z,94.57
2022-08-17T18:59:33.485Z,106.73
2022-08-17T19:02:32.454Z,63.53
2022-08-17T19:05:11.660Z,42.53
2022-08-17T19:07:43.501Z,35.17
2022-08-17T19:10:25.261Z,38.47
2022-08-17T19:13:00.663Z,42.03
2022-08-17T19:15:35.475Z,48.77
2022-08-17T19:18:14.729Z,53.80
2022-08-17T19:20:51.082Z,43.83
2022-08-17T19:23:25.300Z,49.27
2022-08-17T19:25:58.352Z,47.37
2022-08-17T19:28:30.057Z,48.83
2022-08-17T19:31:01.900Z,72.53
2022-08-17T19:33:31.256Z,74.80
2022-08-17T19:36:07.013Z,70.03
2022-08-17T19:38:43.825Z,71.10
2022-08-17T19:41:21.171Z,70.27
2022-08-17T19:44:12.983Z,66.87
2022-08-17T19:46:50.530Z,75.73
2022-08-17T19:49:40.943Z,69.57
2022-08-17T19:52:24.017Z,73.17
2022-08-17T19:54:59.275Z,88.47
2022-08-17T19:57:41.118Z,87.70
2022-08-17T20:00:12.636Z,93.17
2022-08-17T20:02:48.718Z,70.70
2022-08-17T20:05:21.909Z,82.13
2022-08-17T20:07:55.252Z,67.23
2022-08-17T20:10:41.326Z,73.33
2022-08-17T20:13:16.056Z,68.67
2022-08-17T20:15:46.710Z,76.37
2022-08-17T20:18:22.132Z,66.33
2022-08-17T20:20:58.813Z,57.90
2022-08-17T20:23:38.551Z,78.93
2022-08-17T20:26:19.157Z,71.30
2022-08-17T20:29:37.542Z,59.37
2022-08-17T20:32:18.617Z,67.47
2022-08-17T20:34:48.760Z,68.10
2022-08-17T20:37:30.955Z,68.53
2022-08-17T20:40:25.777Z,53.83
2022-08-17T20:42:54.403Z,60.17
2022-08-17T20:46:05.808Z,47.90
2022-08-17T20:48:40.607Z,62.17
2022-08-17T20:51:19.869Z,57.70
2022-08-17T20:54:02.270Z,52.40
2022-08-17T20:56:52.547Z,52.50
2022-08-17T21:00:13.686Z,62.23
2022-08-17T21:02:44.603Z,49.30
2022-08-17T21:05:32.286Z,57.67
2022-08-17T21:08:14.668Z,67.87
2022-08-17T21:10:46.988Z,60.47
2022-08-17T21:13:48.555Z,51.90
2022-08-17T21:16:32.044Z,51.20
2022-08-17T21:19:17.000Z,51.40
2022-08-17T21:21:58.114Z,53.30
2022-08-17T21:24:36.630Z,65.13
2022-08-17T21:27:20.088Z,55.60
2022-08-17T21:29:54.613Z,52.17
2022-08-17T21:32:31.264Z,54.00
2022-08-17T21:35:24.391Z,51.53
2022-08-17T21:37:59.650Z,42.70
2022-08-17T21:40:30.925Z,44.03
2022-08-17T21:43:04.845Z,48.27
2022-08-17T21:45:37.030Z,44.27
2022-08-17T21:48:14.116Z,43.67
2022-08-17T21:50:45.761Z,56.57
2022-08-17T21:53:29.376Z,46.07
2022-08-17T21:56:01.701Z,41.20
2022-08-17T21:58:32.933Z,44.33
2022-08-17T22:01:14.452Z,40.57
2022-08-17T22:03:48.551Z,40.70
2022-08-17T22:06:23.143Z,39.27
2022-08-17T22:09:06.674Z,47.33
2022-08-17T22:11:52.753Z,35.77
2022-08-17T22:14:22.821Z,31.80
2022-08-17T22:17:07.475Z,30.37
2022-08-17T22:19:37.384Z,34.37
2022-08-17T22:22:08.087Z,30.10
2022-08-17T22:24:38.940Z,43.03
2022-08-17T22:27:10.916Z,40.90
2022-08-17T22:29:52.924Z,33.60
2022-08-17T22:32:34.486Z,30.90
2022-08-17T22:35:37.713Z,23.83
2022-08-17T22:38:32.062Z,26.67
2022-08-17T22:41:43.373Z,31.80
2022-08-17T22:44:23.097Z,31.17
2022-08-17T22:46:59.316Z,32.67
2022-08-17T22:49:31.064Z,27.00
2022-08-17T22:52:06.062Z,49.33
2022-08-17T22:54:52.341Z,43.87
2022-08-17T22:57:42.632Z,39.20
2022-08-17T23:00:30.624Z,34.63
2022-08-17T23:03:11.814Z,35.13
2022-08-17T23:05:43.505Z,29.07
2022-08-17T23:08:12.750Z,26.50
2022-08-17T23:10:42.660Z,26.37
2022-08-17T23:13:13.876Z,42.60
2022-08-17T23:15:42.998Z,38.30
2022-08-17T23:18:11.529Z,35.80
2022-08-17T23:20:41.791Z,32.37
2022-08-17T23:23:11.591Z,39.07
2022-08-17T23:25:40.069Z,39.03
2022-08-17T23:28:08.776Z,37.07
2022-08-17T23:30:42.959Z,33.67
2022-08-17T23:33:21.231Z,41.37
2022-08-17T23:35:49.866Z,33.80
2022-08-17T23:38:18.358Z,34.97
2022-08-17T23:40:46.896Z,32.93
2022-08-17T23:43:25.718Z,35.83
2022-08-17T23:45:59.916Z,33.90
2022-08-17T23:48:35.085Z,37.50
2022-08-17T23:51:08.982Z,35.87
2022-08-17T23:53:40.294Z,27.33
2022-08-17T23:56:11.198Z,29.03
2022-08-17T23:58:42.018Z,29.27
